Time;durP1;ratioP1;P1;durP2;ratioP2;P2;SDS_P1;SDS_P2;PMS_P1;PMS_P2;Temp;Humidity;BMP_temperature;BMP_pressure;BME280_temperature;BME280_humidity;BME280_pressure;Samples;Min_cycle;Max_cycle;Signal;HPM_P1;HPM_P2
2022/10/18 00:00:01;;;;;;;1.70;1.60;;;;;;;;;;5034120;28;20274;-52
2022/10/18 00:02:27;;;;;;;2.15;1.63;;;;;;;;;;5009497;28;20314;-51
2022/10/18 00:04:54;;;;;;;1.60;1.50;;;;;;;;;;5026628;28;20212;-51
2022/10/18 00:07:20;;;;;;;1.75;1.40;;;;;;;;;;5025269;28;20278;-54
2022/10/18 00:09:46;;;;;;;3.33;2.45;;;;;;;;;;5030575;28;20649;-54
2022/10/18 00:12:13;;;;;;;1.98;1.70;;;;;;;;;;5029002;28;20675;-55
2022/10/18 00:14:39;;;;;;;3.05;2.30;;;;;;;;;;5026679;28;20278;-53
2022/10/18 00:17:05;;;;;;;3.45;2.25;;;;;;;;;;5029933;28;20722;-53
2022/10/18 00:19:31;;;;;;;6.35;2.33;;;;;;;;;;5030175;28;20714;-51
2022/10/18 00:21:58;;;;;;;1.55;1.45;;;;;;;;;;5028706;28;20219;-51
2022/10/18 00:24:24;;;;;;;1.70;1.50;;;;;;;;;;5030099;28;20274;-51
2022/10/18 00:26:50;;;;;;;2.10;1.60;;;;;;;;;;5029944;28;20569;-51
2022/10/18 00:29:17;;;;;;;1.83;1.50;;;;;;;;;;5029759;28;20290;-55
2022/10/18 00:31:43;;;;;;;1.95;1.52;;;;;;;;;;5027302;28;20298;-51
2022/10/18 00:34:12;;;;;;;2.35;1.73;;;;;;;;;;5012507;28;20282;-54
2022/10/18 00:36:38;;;;;;;1.85;1.40;;;;;;;;;;5012466;28;20278;-51
2022/10/18 00:39:06;;;;;;;1.70;1.60;;;;;;;;;;5028367;28;20578;-51
2022/10/18 00:41:34;;;;;;;2.35;1.70;;;;;;;;;;5029706;28;20778;-53
2022/10/18 00:44:26;;;;;;;3.83;2.30;;;;;;;;;;5029771;28;20656;-53
2022/10/18 00:46:56;;;;;;;4.03;2.33;;;;;;;;;;5024858;28;20279;-55
2022/10/18 00:49:26;;;;;;;4.28;2.58;;;;;;;;;;5029336;28;20227;-58
2022/10/18 00:52:00;;;;;;;2.58;2.00;;;;;;;;;;5011981;28;20663;-54
2022/10/18 00:54:27;;;;;;;2.03;1.45;;;;;;;;;;5005796;28;20282;-55
2022/10/18 00:56:53;;;;;;;3.20;2.13;;;;;;;;;;5029779;28;20664;-53
2022/10/18 00:59:20;;;;;;;1.65;1.50;;;;;;;;;;5029669;28;20785;-52
2022/10/18 01:01:46;;;;;;;1.98;1.60;;;;;;;;;;5029408;28;20295;-56
2022/10/18 01:04:14;;;;;;;1.48;1.38;;;;;;;;;;5027952;28;20273;-55
2022/10/18 01:06:51;;;;;;;1.50;1.40;;;;;;;;;;5028888;28;20202;-56
2022/10/18 01:09:27;;;;;;;1.65;1.42;;;;;;;;;;5016129;28;20199;-56
2022/10/18 01:11:56;;;;;;;2.47;1.50;;;;;;;;;;5015617;28;20330;-56
2022/10/18 01:14:49;;;;;;;1.55;1.45;;;;;;;;;;5011471;28;20207;-55
2022/10/18 01:17:31;;;;;;;1.42;1.25;;;;;;;;;;5033167;28;20283;-53
2022/10/18 01:20:54;;;;;;;1.50;1.40;;;;;;;;;;5014035;28;20200;-52
2022/10/18 01:23:48;;;;;;;1.55;1.40;;;;;;;;;;4951422;28;20475;-52
2022/10/18 01:26:51;;;;;;;1.25;1.15;;;;;;;;;;4951596;28;20226;-55
2022/10/18 01:29:41;;;;;;;2.00;1.80;;;;;;;;;;5016599;28;20329;-51
2022/10/18 01:32:13;;;;;;;3.30;2.13;;;;;;;;;;5031019;28;20318;-51
2022/10/18 01:34:41;;;;;;;1.55;1.38;;;;;;;;;;5015487;28;20310;-54
2022/10/18 01:37:10;;;;;;;1.67;1.58;;;;;;;;;;5016013;28;20282;-55
2022/10/18 01:39:39;;;;;;;1.85;1.60;;;;;;;;;;5013764;28;20286;-54
2022/10/18 01:42:09;;;;;;;1.75;1.50;;;;;;;;;;5014705;28;20297;-55
2022/10/18 01:44:37;;;;;;;1.50;1.40;;;;;;;;;;5015691;28;20286;-55
2022/10/18 01:47:06;;;;;;;1.83;1.42;;;;;;;;;;5014988;28;20278;-55
2022/10/18 01:49:32;;;;;;;2.47;1.90;;;;;;;;;;5015247;28;20727;-54
2022/10/18 01:51:58;;;;;;;1.92;1.70;;;;;;;;;;5014651;28;20302;-55
2022/10/18 01:54:30;;;;;;;1.88;1.38;;;;;;;;;;5027103;28;20663;-55
2022/10/18 01:57:00;;;;;;;1.92;1.75;;;;;;;;;;5009082;28;20217;-53
2022/10/18 01:59:42;;;;;;;1.52;1.40;;;;;;;;;;5009530;28;20274;-55
2022/10/18 02:02:18;;;;;;;2.63;1.60;;;;;;;;;;5028569;28;20298;-55
2022/10/18 02:04:53;;;;;;;1.70;1.40;;;;;;;;;;5011091;28;20693;-54
2022/10/18 02:07:33;;;;;;;1.90;1.40;;;;;;;;;;5013832;28;20278;-56
2022/10/18 02:10:17;;;;;;;1.88;1.40;;;;;;;;;;5014959;28;20623;-54
2022/10/18 02:12:45;;;;;;;1.50;1.40;;;;;;;;;;5011376;28;20770;-51
2022/10/18 02:15:15;;;;;;;1.40;1.30;;;;;;;;;;5014502;28;20227;-53
2022/10/18 02:17:43;;;;;;;2.10;1.50;;;;;;;;;;5014091;28;20279;-55
2022/10/18 02:20:10;;;;;;;1.70;1.60;;;;;;;;;;5014668;28;20279;-52
2022/10/18 02:22:38;;;;;;;2.40;1.50;;;;;;;;;;5028557;28;20652;-54
2022/10/18 02:25:10;;;;;;;2.08;1.48;;;;;;;;;;5032048;28;20279;-54
2022/10/18 02:27:36;;;;;;;1.85;1.23;;;;;;;;;;5032057;28;20231;-53
2022/10/18 02:30:03;;;;;;;3.25;1.48;;;;;;;;;;5028793;28;20290;-53
2022/10/18 02:33:13;;;;;;;1.38;1.27;;;;;;;;;;5032158;28;20595;-52
2022/10/18 02:35:46;;;;;;;1.60;1.40;;;;;;;;;;5021828;28;20197;-54
2022/10/18 02:38:15;;;;;;;1.42;1.33;;;;;;;;;;5029295;28;20295;-51
2022/10/18 02:40:41;;;;;;;1.67;1.58;;;;;;;;;;5014679;28;20287;-52
2022/10/18 02:43:07;;;;;;;1.58;1.48;;;;;;;;;;5031574;28;20293;-57
2022/10/18 02:45:34;;;;;;;1.60;1.38;;;;;;;;;;5031280;28;20277;-54
2022/10/18 02:48:00;;;;;;;1.27;1.17;;;;;;;;;;5028174;28;20278;-53
2022/10/18 02:50:26;;;;;;;1.80;1.45;;;;;;;;;;5031574;28;20734;-52
2022/10/18 02:52:53;;;;;;;3.97;1.85;;;;;;;;;;5030868;28;20778;-52
2022/10/18 02:55:19;;;;;;;1.42;1.33;;;;;;;;;;5029604;28;20235;-56
2022/10/18 02:57:46;;;;;;;1.80;1.60;;;;;;;;;;5031492;28;20684;-56
2022/10/18 03:00:12;;;;;;;1.67;1.58;;;;;;;;;;5031430;28;20278;-56
2022/10/18 03:02:39;;;;;;;1.88;1.50;;;;;;;;;;5030943;28;20657;-55
2022/10/18 03:05:05;;;;;;;1.52;1.40;;;;;;;;;;5029674;28;20286;-56
2022/10/18 03:07:31;;;;;;;1.40;1.30;;;;;;;;;;5031145;28;20569;-56
2022/10/18 03:09:58;;;;;;;1.20;1.10;;;;;;;;;;5031656;28;20223;-53
2022/10/18 03:12:25;;;;;;;1.30;1.20;;;;;;;;;;5026885;28;20229;-55
2022/10/18 03:14:51;;;;;;;1.35;1.25;;;;;;;;;;5031642;28;20223;-55
2022/10/18 03:17:17;;;;;;;1.85;1.40;;;;;;;;;;5031711;28;20209;-53
2022/10/18 03:19:44;;;;;;;1.80;1.70;;;;;;;;;;5031136;28;20191;-54
2022/10/18 03:22:10;;;;;;;1.50;1.30;;;;;;;;;;5027082;28;20315;-54
2022/10/18 03:24:36;;;;;;;1.67;1.40;;;;;;;;;;5030758;28;20755;-53
2022/10/18 03:27:03;;;;;;;1.58;1.33;;;;;;;;;;5030696;28;20729;-53
2022/10/18 03:29:29;;;;;;;1.58;1.48;;;;;;;;;;5027236;28;20858;-56
2022/10/18 03:31:55;;;;;;;1.70;1.40;;;;;;;;;;5029715;28;20310;-54
2022/10/18 03:34:22;;;;;;;1.50;1.00;;;;;;;;;;5031203;28;20294;-52
2022/10/18 03:36:48;;;;;;;1.48;1.10;;;;;;;;;;5032528;28;20262;-55
2022/10/18 03:39:14;;;;;;;1.30;1.05;;;;;;;;;;5036348;28;20286;-53
2022/10/18 03:41:40;;;;;;;1.67;1.40;;;;;;;;;;5037531;28;20250;-55
2022/10/18 03:44:07;;;;;;;1.40;1.13;;;;;;;;;;5032451;28;20223;-55
2022/10/18 03:46:33;;;;;;;1.77;1.30;;;;;;;;;;5035242;28;20286;-55
2022/10/18 03:48:59;;;;;;;1.50;1.30;;;;;;;;;;5028594;28;20291;-53
2022/10/18 03:51:26;;;;;;;1.33;1.23;;;;;;;;;;5029966;28;20306;-55
2022/10/18 03:53:52;;;;;;;1.55;1.45;;;;;;;;;;5030808;28;20282;-55
2022/10/18 03:56:18;;;;;;;1.40;1.20;;;;;;;;;;5029911;28;20298;-52
2022/10/18 03:58:45;;;;;;;1.33;1.20;;;;;;;;;;5025378;28;20752;-51
2022/10/18 04:01:11;;;;;;;1.73;1.50;;;;;;;;;;5030130;28;20300;-53
2022/10/18 04:03:37;;;;;;;1.92;1.33;;;;;;;;;;5023936;28;20505;-53
2022/10/18 04:06:04;;;;;;;1.35;1.20;;;;;;;;;;5029627;28;20290;-54
2022/10/18 04:08:30;;;;;;;1.52;1.20;;;;;;;;;;5030097;28;20287;-53
2022/10/18 04:10:57;;;;;;;1.27;1.17;;;;;;;;;;5030119;28;20215;-52
2022/10/18 04:13:23;;;;;;;2.38;1.20;;;;;;;;;;5027705;28;20253;-52
2022/10/18 04:15:49;;;;;;;1.20;1.10;;;;;;;;;;5030175;28;20282;-52
2022/10/18 04:18:16;;;;;;;1.40;1.20;;;;;;;;;;5030477;28;20719;-53
2022/10/18 04:20:42;;;;;;;1.40;1.30;;;;;;;;;;5025261;28;20295;-55
2022/10/18 04:23:08;;;;;;;2.53;1.35;;;;;;;;;;5029768;28;20242;-54
2022/10/18 04:25:35;;;;;;;1.75;1.30;;;;;;;;;;5030181;28;20278;-53
2022/10/18 04:28:03;;;;;;;1.35;1.25;;;;;;;;;;5027304;28;20200;-52
2022/10/18 04:30:29;;;;;;;1.35;1.25;;;;;;;;;;5011933;28;20278;-51
2022/10/18 04:32:56;;;;;;;2.00;1.30;;;;;;;;;;5029508;28;20231;-53
2022/10/18 04:35:24;;;;;;;1.23;1.13;;;;;;;;;;5030295;28;20283;-52
2022/10/18 04:37:51;;;;;;;1.60;1.40;;;;;;;;;;5028232;28;20318;-52
2022/10/18 04:40:18;;;;;;;1.27;1.15;;;;;;;;;;5030259;28;20203;-54
2022/10/18 04:42:45;;;;;;;1.33;1.23;;;;;;;;;;5033502;28;20742;-52
2022/10/18 04:45:11;;;;;;;1.33;1.13;;;;;;;;;;5033817;28;20294;-55
2022/10/18 04:47:38;;;;;;;1.40;1.20;;;;;;;;;;5030439;28;20289;-54
2022/10/18 04:50:04;;;;;;;2.08;1.10;;;;;;;;;;5033990;28;20634;-52
2022/10/18 04:52:31;;;;;;;1.65;1.30;;;;;;;;;;5033691;28;20652;-51
2022/10/18 04:54:57;;;;;;;1.30;1.20;;;;;;;;;;5033697;28;20290;-51
2022/10/18 04:57:23;;;;;;;1.40;1.30;;;;;;;;;;5028950;28;20226;-51
2022/10/18 04:59:50;;;;;;;1.75;1.45;;;;;;;;;;5033649;28;20200;-54
2022/10/18 05:02:16;;;;;;;1.50;1.40;;;;;;;;;;5032425;28;20298;-54
2022/10/18 05:04:42;;;;;;;1.40;1.25;;;;;;;;;;5029062;28;20294;-54
2022/10/18 05:07:09;;;;;;;1.38;1.20;;;;;;;;;;5033656;28;20279;-51
2022/10/18 05:09:35;;;;;;;1.40;1.30;;;;;;;;;;5033570;28;20196;-51
2022/10/18 05:12:01;;;;;;;1.35;1.23;;;;;;;;;;5029747;28;20310;-51
2022/10/18 05:14:27;;;;;;;1.38;1.15;;;;;;;;;;5033918;28;20230;-51
2022/10/18 05:16:54;;;;;;;1.48;1.38;;;;;;;;;;5033240;28;20735;-51
2022/10/18 05:19:20;;;;;;;1.30;1.20;;;;;;;;;;5030143;28;20285;-50
2022/10/18 05:21:46;;;;;;;1.50;1.40;;;;;;;;;;5032847;28;20775;-52
2022/10/18 05:24:13;;;;;;;1.10;1.00;;;;;;;;;;5032979;28;20714;-53
2022/10/18 05:26:39;;;;;;;1.55;1.20;;;;;;;;;;5033097;28;20299;-56
2022/10/18 05:29:05;;;;;;;1.38;1.27;;;;;;;;;;5031042;28;20286;-54
2022/10/18 05:31:32;;;;;;;1.30;1.20;;;;;;;;;;5032822;28;20298;-53
2022/10/18 05:34:00;;;;;;;1.20;1.10;;;;;;;;;;5033119;28;20671;-51
2022/10/18 05:36:26;;;;;;;1.40;1.30;;;;;;;;;;5027809;28;20191;-52
2022/10/18 05:38:53;;;;;;;1.48;1.30;;;;;;;;;;5028935;28;20235;-55
2022/10/18 05:41:19;;;;;;;2.13;1.60;;;;;;;;;;5029614;28;20755;-51
2022/10/18 05:43:45;;;;;;;1.85;1.40;;;;;;;;;;5032471;28;20615;-53
2022/10/18 05:46:12;;;;;;;1.75;1.42;;;;;;;;;;5032884;28;20287;-52
2022/10/18 05:48:42;;;;;;;1.90;1.45;;;;;;;;;;5032912;28;20253;-52
2022/10/18 05:51:09;;;;;;;1.13;1.02;;;;;;;;;;5030612;28;20227;-52
2022/10/18 05:53:35;;;;;;;1.52;1.33;;;;;;;;;;5031110;28;20515;-56
2022/10/18 05:56:04;;;;;;;1.55;1.33;;;;;;;;;;5032599;28;20242;-51
2022/10/18 05:58:30;;;;;;;1.40;1.30;;;;;;;;;;5030569;28;20234;-51
2022/10/18 06:00:59;;;;;;;2.30;1.10;;;;;;;;;;5032603;28;20231;-51
2022/10/18 06:03:26;;;;;;;1.20;1.10;;;;;;;;;;5026903;28;20297;-56
2022/10/18 06:05:57;;;;;;;1.30;1.17;;;;;;;;;;5030845;28;20287;-52
2022/10/18 06:08:23;;;;;;;1.25;1.15;;;;;;;;;;5030828;28;20278;-52
2022/10/18 06:10:50;;;;;;;1.50;1.38;;;;;;;;;;5031408;28;20278;-56
2022/10/18 06:13:16;;;;;;;1.52;1.30;;;;;;;;;;5029128;28;20314;-53
2022/10/18 06:15:42;;;;;;;1.40;1.30;;;;;;;;;;5032694;28;20287;-52
2022/10/18 06:18:08;;;;;;;1.23;1.13;;;;;;;;;;5032940;28;20287;-51
2022/10/18 06:20:35;;;;;;;1.30;1.20;;;;;;;;;;5032203;28;20747;-51
2022/10/18 06:23:01;;;;;;;1.30;1.10;;;;;;;;;;5028486;28;20291;-56
2022/10/18 06:25:27;;;;;;;1.50;1.17;;;;;;;;;;5032250;28;20278;-52
2022/10/18 06:27:54;;;;;;;1.30;1.20;;;;;;;;;;5031204;28;20743;-53
2022/10/18 06:30:20;;;;;;;1.73;1.30;;;;;;;;;;5030483;28;20231;-54
2022/10/18 06:32:46;;;;;;;1.48;1.23;;;;;;;;;;5034756;28;20841;-54
2022/10/18 06:35:13;;;;;;;1.38;1.25;;;;;;;;;;5031912;28;20264;-53
2022/10/18 06:37:39;;;;;;;1.63;1.17;;;;;;;;;;5029602;28;20238;-52
2022/10/18 06:40:06;;;;;;;1.50;1.20;;;;;;;;;;5033792;28;20279;-52
2022/10/18 06:42:32;;;;;;;1.20;1.10;;;;;;;;;;5029969;28;20319;-51
2022/10/18 06:44:59;;;;;;;1.20;1.10;;;;;;;;;;5030185;28;20199;-56
2022/10/18 06:47:26;;;;;;;1.58;1.20;;;;;;;;;;5009698;28;20283;-51
2022/10/18 06:49:52;;;;;;;1.30;1.20;;;;;;;;;;5031295;28;20730;-52
2022/10/18 06:52:21;;;;;;;1.30;1.15;;;;;;;;;;5031024;28;20305;-52
2022/10/18 06:54:47;;;;;;;1.33;1.10;;;;;;;;;;5030965;28;20223;-55
2022/10/18 06:57:14;;;;;;;1.40;1.23;;;;;;;;;;5031498;28;20611;-55
2022/10/18 06:59:40;;;;;;;1.30;1.20;;;;;;;;;;5031485;28;20274;-53
2022/10/18 07:02:06;;;;;;;1.13;1.02;;;;;;;;;;5025210;28;20661;-52
2022/10/18 07:04:33;;;;;;;1.40;1.30;;;;;;;;;;5027117;28;20214;-52
2022/10/18 07:06:59;;;;;;;1.30;1.20;;;;;;;;;;5031587;28;20282;-51
2022/10/18 07:09:25;;;;;;;1.33;1.10;;;;;;;;;;5026144;28;20798;-51
2022/10/18 07:11:52;;;;;;;1.20;1.10;;;;;;;;;;5034379;28;20322;-54
2022/10/18 07:14:18;;;;;;;1.27;1.10;;;;;;;;;;5028369;28;20433;-52
2022/10/18 07:16:45;;;;;;;1.25;1.08;;;;;;;;;;5034867;28;20245;-55
2022/10/18 07:19:11;;;;;;;1.88;1.13;;;;;;;;;;5025869;28;20339;-56
2022/10/18 07:21:37;;;;;;;1.23;1.13;;;;;;;;;;5029841;28;20298;-54
2022/10/18 07:24:04;;;;;;;1.27;1.15;;;;;;;;;;5030003;28;20259;-53
2022/10/18 07:26:32;;;;;;;1.30;1.20;;;;;;;;;;5030432;28;20300;-54
2022/10/18 07:29:01;;;;;;;1.10;1.00;;;;;;;;;;5025937;28;20280;-54
2022/10/18 07:31:28;;;;;;;1.40;1.10;;;;;;;;;;5006985;28;20224;-55
2022/10/18 07:33:55;;;;;;;1.30;1.13;;;;;;;;;;5029757;28;20306;-55
2022/10/18 07:36:21;;;;;;;1.95;1.15;;;;;;;;;;5025765;28;20286;-54
2022/10/18 07:38:48;;;;;;;1.10;1.00;;;;;;;;;;5029822;28;20671;-55
2022/10/18 07:41:14;;;;;;;0.98;0.95;;;;;;;;;;5025267;28;20631;-56
2022/10/18 07:43:46;;;;;;;2.25;1.30;;;;;;;;;;5027567;28;20264;-55
2022/10/18 07:46:14;;;;;;;1.30;1.00;;;;;;;;;;5023407;28;20295;-55
2022/10/18 07:48:40;;;;;;;1.48;1.20;;;;;;;;;;5028955;28;20227;-55
2022/10/18 07:51:07;;;;;;;1.10;0.98;;;;;;;;;;5025978;28;20226;-55
2022/10/18 07:53:33;;;;;;;1.38;1.20;;;;;;;;;;5028366;28;20675;-56
2022/10/18 07:56:01;;;;;;;1.13;1.02;;;;;;;;;;5025933;28;20207;-55
2022/10/18 07:58:33;;;;;;;1.25;1.15;;;;;;;;;;5025457;28;20664;-52
2022/10/18 08:01:03;;;;;;;1.30;1.20;;;;;;;;;;5029478;28;20287;-52
2022/10/18 08:03:30;;;;;;;0.98;0.98;;;;;;;;;;5024141;28;20237;-54
2022/10/18 08:05:56;;;;;;;1.17;1.08;;;;;;;;;;5015976;28;20734;-55
2022/10/18 08:08:23;;;;;;;1.02;1.00;;;;;;;;;;5031155;28;20330;-56
2022/10/18 08:10:50;;;;;;;1.30;1.13;;;;;;;;;;5024975;28;20283;-58
2022/10/18 08:13:16;;;;;;;1.27;1.17;;;;;;;;;;5025946;28;20223;-52
2022/10/18 08:15:43;;;;;;;1.63;1.00;;;;;;;;;;5027634;28;20278;-57
2022/10/18 08:18:10;;;;;;;1.30;1.20;;;;;;;;;;5026300;28;20234;-56
2022/10/18 08:20:36;;;;;;;1.73;1.30;;;;;;;;;;5029791;28;20739;-56
2022/10/18 08:23:03;;;;;;;1.45;1.33;;;;;;;;;;5012690;28;20247;-53
2022/10/18 08:25:30;;;;;;;1.13;1.02;;;;;;;;;;5026928;28;20199;-54
2022/10/18 08:27:56;;;;;;;1.20;1.10;;;;;;;;;;5029265;28;20196;-56
2022/10/18 08:30:23;;;;;;;1.20;1.10;;;;;;;;;;5029838;28;20669;-51
2022/10/18 08:32:49;;;;;;;1.05;0.98;;;;;;;;;;5029749;28;20317;-55
2022/10/18 08:35:15;;;;;;;1.20;1.10;;;;;;;;;;5011373;28;20270;-54
2022/10/18 08:37:44;;;;;;;1.50;1.20;;;;;;;;;;5030004;28;20287;-51
2022/10/18 08:40:12;;;;;;;1.35;1.20;;;;;;;;;;5029965;28;20254;-51
2022/10/18 08:43:17;;;;;;;1.20;1.10;;;;;;;;;;5029600;28;20306;-52
2022/10/18 08:45:48;;;;;;;1.30;1.20;;;;;;;;;;4976713;28;20196;-54
2022/10/18 08:48:36;;;;;;;1.17;1.08;;;;;;;;;;4964291;28;20294;-54
2022/10/18 08:51:06;;;;;;;1.15;1.05;;;;;;;;;;4992666;28;20290;-56
2022/10/18 08:53:58;;;;;;;1.85;1.20;;;;;;;;;;5008796;28;20306;-51
2022/10/18 08:56:25;;;;;;;1.15;1.05;;;;;;;;;;5012361;28;20287;-50
2022/10/18 08:58:51;;;;;;;2.35;0.82;;;;;;;;;;5029765;28;20238;-51
2022/10/18 09:01:39;;;;;;;1.10;1.00;;;;;;;;;;5028026;28;20694;-53
2022/10/18 09:04:25;;;;;;;1.17;1.08;;;;;;;;;;5012353;28;20207;-51
2022/10/18 09:07:03;;;;;;;1.20;1.10;;;;;;;;;;5029638;28;20191;-53
2022/10/18 09:09:45;;;;;;;1.08;0.98;;;;;;;;;;5022360;28;20230;-52
2022/10/18 09:12:48;;;;;;;1.30;1.20;;;;;;;;;;5027175;28;20306;-52
2022/10/18 09:15:21;;;;;;;1.08;0.98;;;;;;;;;;5029355;28;20851;-51
2022/10/18 09:18:02;;;;;;;1.20;1.10;;;;;;;;;;5026072;28;20284;-51
2022/10/18 09:20:49;;;;;;;1.27;1.10;;;;;;;;;;5025143;28;20291;-52
2022/10/18 09:23:46;;;;;;;1.17;1.02;;;;;;;;;;5029394;28;20302;-54
2022/10/18 09:26:18;;;;;;;2.10;1.38;;;;;;;;;;5029350;28;20279;-53
2022/10/18 09:29:05;;;;;;;1.65;1.27;;;;;;;;;;5011455;28;20552;-53
2022/10/18 09:31:44;;;;;;;1.42;1.20;;;;;;;;;;5029033;28;20238;-54
2022/10/18 09:34:18;;;;;;;1.38;1.08;;;;;;;;;;5015280;28;20219;-54
2022/10/18 09:36:45;;;;;;;1.33;1.08;;;;;;;;;;5012251;28;20287;-52
2022/10/18 09:39:14;;;;;;;1.33;1.10;;;;;;;;;;5015081;28;20310;-53
2022/10/18 09:41:59;;;;;;;1.20;1.10;;;;;;;;;;5032556;28;20294;-51
2022/10/18 09:44:55;;;;;;;1.63;1.17;;;;;;;;;;5012284;28;20219;-51
2022/10/18 09:47:25;;;;;;;1.55;0.90;;;;;;;;;;4993931;28;20281;-53
2022/10/18 09:49:59;;;;;;;1.00;0.90;;;;;;;;;;5014974;28;20365;-52
2022/10/18 09:52:31;;;;;;;1.15;1.05;;;;;;;;;;5014199;28;20219;-54
2022/10/18 09:55:02;;;;;;;1.05;0.90;;;;;;;;;;5031516;28;20615;-52
2022/10/18 09:57:39;;;;;;;1.20;1.10;;;;;;;;;;5010926;28;20282;-52
2022/10/18 10:00:13;;;;;;;1.15;1.05;;;;;;;;;;5029443;28;20287;-52
2022/10/18 10:02:40;;;;;;;1.10;1.00;;;;;;;;;;5029124;28;20221;-55
2022/10/18 10:05:11;;;;;;;0.95;0.90;;;;;;;;;;5032161;28;20208;-53
2022/10/18 10:07:43;;;;;;;1.10;1.00;;;;;;;;;;5014753;28;20199;-55
2022/10/18 10:10:15;;;;;;;1.00;0.93;;;;;;;;;;5030316;28;20646;-54
2022/10/18 10:12:42;;;;;;;0.70;0.70;;;;;;;;;;5031356;28;20211;-55
2022/10/18 10:15:18;;;;;;;0.98;0.90;;;;;;;;;;5014585;28;20227;-56
2022/10/18 10:18:03;;;;;;;0.90;0.90;;;;;;;;;;5029500;28;20223;-55
2022/10/18 10:20:41;;;;;;;1.10;1.00;;;;;;;;;;5013154;28;20282;-55
2022/10/18 10:23:23;;;;;;;0.73;0.73;;;;;;;;;;5013894;28;20242;-53
2022/10/18 10:26:20;;;;;;;1.02;1.00;;;;;;;;;;5031969;28;20231;-53
2022/10/18 10:28:47;;;;;;;0.77;0.75;;;;;;;;;;5020279;28;20227;-51
2022/10/18 10:31:23;;;;;;;0.95;0.90;;;;;;;;;;5031266;28;20278;-55
2022/10/18 10:34:01;;;;;;;1.23;1.00;;;;;;;;;;5031940;28;20306;-52
2022/10/18 10:36:28;;;;;;;1.10;1.00;;;;;;;;;;5026173;28;20291;-51
2022/10/18 10:39:22;;;;;;;1.00;0.90;;;;;;;;;;5031890;28;20278;-53
2022/10/18 10:41:51;;;;;;;0.73;0.73;;;;;;;;;;5026205;28;20307;-55
2022/10/18 10:44:19;;;;;;;1.05;0.88;;;;;;;;;;5024236;28;20278;-52
2022/10/18 10:46:47;;;;;;;0.82;0.82;;;;;;;;;;5031578;28;20735;-51
2022/10/18 10:49:20;;;;;;;0.85;0.80;;;;;;;;;;5031628;28;20278;-51
2022/10/18 10:52:05;;;;;;;0.85;0.80;;;;;;;;;;5029843;28;20239;-53
2022/10/18 10:54:35;;;;;;;1.00;0.90;;;;;;;;;;5031670;28;20250;-51
2022/10/18 10:57:11;;;;;;;0.77;0.70;;;;;;;;;;5013905;28;20202;-52
2022/10/18 10:59:42;;;;;;;0.95;0.90;;;;;;;;;;5013167;28;20625;-55
2022/10/18 11:02:18;;;;;;;0.70;0.70;;;;;;;;;;5011182;28;20219;-51
2022/10/18 11:04:46;;;;;;;1.25;0.90;;;;;;;;;;5030779;28;20245;-51
2022/10/18 11:07:15;;;;;;;0.80;0.80;;;;;;;;;;5031240;28;20287;-51
2022/10/18 11:09:47;;;;;;;1.15;0.90;;;;;;;;;;5010337;28;20283;-55
2022/10/18 11:12:24;;;;;;;1.10;1.00;;;;;;;;;;5013010;28;20722;-51
2022/10/18 11:15:02;;;;;;;1.30;0.90;;;;;;;;;;5013328;28;20261;-51
2022/10/18 11:17:39;;;;;;;1.30;1.00;;;;;;;;;;5009424;28;20287;-53
2022/10/18 11:20:28;;;;;;;0.80;0.80;;;;;;;;;;5028062;28;20756;-52
2022/10/18 11:22:54;;;;;;;0.93;0.90;;;;;;;;;;5012997;28;20306;-52
2022/10/18 11:25:24;;;;;;;0.88;0.88;;;;;;;;;;5030811;28;20729;-51
2022/10/18 11:27:53;;;;;;;0.68;0.68;;;;;;;;;;5008760;28;20290;-52
2022/10/18 11:30:55;;;;;;;1.30;1.10;;;;;;;;;;5030789;28;20192;-55
2022/10/18 11:33:35;;;;;;;1.13;1.00;;;;;;;;;;4990826;28;20313;-51
2022/10/18 11:36:40;;;;;;;1.05;1.00;;;;;;;;;;5028348;28;20585;-51
2022/10/18 11:39:51;;;;;;;1.02;0.93;;;;;;;;;;5011523;28;20195;-54
2022/10/18 11:42:27;;;;;;;1.25;0.90;;;;;;;;;;5007482;28;20303;-54
2022/10/18 11:45:17;;;;;;;1.23;1.10;;;;;;;;;;5015595;28;20273;-53
2022/10/18 11:48:02;;;;;;;0.90;0.90;;;;;;;;;;5027291;28;20196;-54
2022/10/18 11:50:29;;;;;;;1.33;1.20;;;;;;;;;;5027021;28;20274;-53
2022/10/18 11:53:08;;;;;;;1.02;0.90;;;;;;;;;;5028668;28;20962;-52
2022/10/18 11:55:44;;;;;;;0.75;0.75;;;;;;;;;;5008797;28;20742;-54
2022/10/18 11:58:27;;;;;;;0.85;0.85;;;;;;;;;;5030729;28;20283;-53
2022/10/18 12:01:10;;;;;;;1.00;0.93;;;;;;;;;;5027873;28;20282;-52
2022/10/18 12:03:58;;;;;;;1.05;0.85;;;;;;;;;;5008829;28;20635;-54
2022/10/18 12:06:29;;;;;;;1.02;0.90;;;;;;;;;;5010602;28;20318;-53
2022/10/18 12:09:02;;;;;;;0.95;0.85;;;;;;;;;;5006061;28;20294;-52
2022/10/18 12:11:37;;;;;;;1.00;0.90;;;;;;;;;;5029078;28;20205;-54
2022/10/18 12:14:32;;;;;;;0.93;0.90;;;;;;;;;;5009669;28;20219;-51
2022/10/18 12:17:13;;;;;;;1.00;0.90;;;;;;;;;;5003488;28;20227;-50
2022/10/18 12:20:24;;;;;;;1.00;0.90;;;;;;;;;;5014170;28;20203;-51
2022/10/18 12:23:00;;;;;;;0.77;0.75;;;;;;;;;;5010268;28;20243;-50
2022/10/18 12:25:29;;;;;;;1.00;0.88;;;;;;;;;;5027375;28;20287;-51
2022/10/18 12:27:58;;;;;;;0.88;0.75;;;;;;;;;;5009701;28;20778;-54
2022/10/18 12:30:47;;;;;;;0.85;0.85;;;;;;;;;;5028900;28;20763;-56
2022/10/18 12:33:21;;;;;;;1.02;0.90;;;;;;;;;;5008634;28;20642;-50
2022/10/18 12:36:29;;;;;;;1.05;0.98;;;;;;;;;;5010038;28;20200;-53
2022/10/18 12:39:01;;;;;;;0.77;0.77;;;;;;;;;;5009583;28;20705;-51
2022/10/18 12:41:29;;;;;;;1.00;0.90;;;;;;;;;;5007608;28;20617;-51
2022/10/18 12:44:04;;;;;;;0.80;0.80;;;;;;;;;;5006130;28;20282;-53
2022/10/18 12:46:46;;;;;;;0.80;0.73;;;;;;;;;;5008147;28;20286;-51
2022/10/18 12:49:13;;;;;;;0.77;0.77;;;;;;;;;;5029589;28;20290;-55
2022/10/18 12:51:54;;;;;;;0.68;0.68;;;;;;;;;;5009331;28;20306;-51
2022/10/18 12:55:00;;;;;;;1.20;0.88;;;;;;;;;;5027564;28;20304;-55
2022/10/18 12:57:52;;;;;;;1.10;1.00;;;;;;;;;;5007548;28;20321;-56
2022/10/18 13:00:28;;;;;;;0.88;0.88;;;;;;;;;;5027108;28;20226;-55
2022/10/18 13:03:13;;;;;;;0.90;0.90;;;;;;;;;;5027520;28;20253;-52
2022/10/18 13:05:51;;;;;;;0.95;0.90;;;;;;;;;;5030148;28;20286;-54
2022/10/18 13:08:26;;;;;;;1.00;0.80;;;;;;;;;;5030232;28;20663;-52
2022/10/18 13:11:29;;;;;;;1.00;0.93;;;;;;;;;;5032039;28;20638;-52
2022/10/18 13:14:14;;;;;;;0.70;0.70;;;;;;;;;;5029091;28;20414;-53
2022/10/18 13:16:47;;;;;;;0.95;0.90;;;;;;;;;;5031839;28;20333;-52
2022/10/18 13:19:19;;;;;;;0.82;0.70;;;;;;;;;;5030134;28;20201;-53
2022/10/18 13:21:55;;;;;;;1.45;0.93;;;;;;;;;;5010616;28;20553;-52
2022/10/18 13:24:43;;;;;;;0.85;0.85;;;;;;;;;;5012708;28;20194;-51
2022/10/18 13:27:22;;;;;;;1.17;0.88;;;;;;;;;;5011731;28;20670;-51
2022/10/18 13:30:20;;;;;;;0.77;0.77;;;;;;;;;;5012150;28;20199;-52
2022/10/18 13:32:53;;;;;;;0.95;0.80;;;;;;;;;;5030920;28;20215;-56
2022/10/18 13:35:41;;;;;;;0.90;0.80;;;;;;;;;;5032447;28;20211;-51
2022/10/18 13:38:40;;;;;;;0.88;0.80;;;;;;;;;;5029565;28;20718;-51
2022/10/18 13:41:21;;;;;;;1.00;0.90;;;;;;;;;;5013394;28;20278;-53
2022/10/18 13:43:52;;;;;;;1.00;0.90;;;;;;;;;;5030356;28;20267;-53
2022/10/18 13:46:23;;;;;;;0.93;0.88;;;;;;;;;;5029712;28;20634;-52
2022/10/18 13:48:50;;;;;;;0.98;0.88;;;;;;;;;;5033438;28;20272;-55
2022/10/18 13:51:29;;;;;;;0.98;0.80;;;;;;;;;;5029440;28;20282;-50
2022/10/18 13:54:34;;;;;;;1.23;0.80;;;;;;;;;;5014313;28;20307;-54
2022/10/18 13:57:09;;;;;;;1.00;0.82;;;;;;;;;;4988103;28;20204;-53
2022/10/18 13:59:46;;;;;;;0.98;0.80;;;;;;;;;;5011897;28;20287;-54
2022/10/18 14:02:28;;;;;;;0.80;0.80;;;;;;;;;;5016409;28;20243;-53
2022/10/18 14:05:27;;;;;;;0.90;0.82;;;;;;;;;;5012645;28;20202;-54
2022/10/18 14:08:11;;;;;;;0.70;0.70;;;;;;;;;;5032576;28;20199;-51
2022/10/18 14:10:55;;;;;;;1.10;1.00;;;;;;;;;;5012532;28;20227;-53
2022/10/18 14:13:35;;;;;;;0.98;0.90;;;;;;;;;;5010250;28;20215;-51
2022/10/18 14:16:13;;;;;;;0.88;0.80;;;;;;;;;;5015257;28;20649;-57
2022/10/18 14:18:41;;;;;;;0.93;0.82;;;;;;;;;;5013216;28;20295;-52
2022/10/18 14:21:14;;;;;;;1.13;1.05;;;;;;;;;;5011941;28;20201;-54
2022/10/18 14:23:46;;;;;;;1.15;0.80;;;;;;;;;;5014997;28;20199;-51
2022/10/18 14:26:17;;;;;;;0.85;0.85;;;;;;;;;;5013528;28;20303;-55
2022/10/18 14:28:44;;;;;;;0.80;0.80;;;;;;;;;;5026198;28;20283;-52
2022/10/18 14:31:25;;;;;;;0.80;0.80;;;;;;;;;;5015278;28;20215;-55
2022/10/18 14:33:53;;;;;;;0.70;0.70;;;;;;;;;;5031758;28;20283;-54
2022/10/18 14:36:44;;;;;;;0.77;0.70;;;;;;;;;;5010095;28;20203;-52
2022/10/18 14:39:23;;;;;;;0.80;0.80;;;;;;;;;;5011237;28;20631;-51
2022/10/18 14:41:51;;;;;;;0.60;0.60;;;;;;;;;;5012931;28;20306;-54
2022/10/18 14:44:25;;;;;;;0.95;0.80;;;;;;;;;;5031502;28;20234;-50
2022/10/18 14:46:58;;;;;;;0.70;0.70;;;;;;;;;;5028559;28;20279;-52
2022/10/18 14:49:25;;;;;;;0.80;0.80;;;;;;;;;;5031324;28;20200;-52
2022/10/18 14:51:54;;;;;;;0.82;0.80;;;;;;;;;;5031066;28;20299;-51
2022/10/18 14:54:32;;;;;;;1.00;0.90;;;;;;;;;;5029594;28;20220;-52
2022/10/18 14:56:59;;;;;;;0.82;0.82;;;;;;;;;;5012936;28;20278;-55
2022/10/18 14:59:28;;;;;;;0.70;0.70;;;;;;;;;;5012025;28;20240;-51
2022/10/18 15:01:56;;;;;;;0.80;0.80;;;;;;;;;;5013067;28;20227;-53
2022/10/18 15:04:24;;;;;;;0.70;0.70;;;;;;;;;;5027671;28;20697;-51
2022/10/18 15:06:54;;;;;;;0.60;0.60;;;;;;;;;;5016193;28;20203;-51
2022/10/18 15:09:22;;;;;;;0.80;0.73;;;;;;;;;;5013478;28;20196;-51
2022/10/18 15:11:49;;;;;;;0.80;0.70;;;;;;;;;;5030528;28;20237;-51
2022/10/18 15:14:17;;;;;;;1.15;0.90;;;;;;;;;;5011845;28;20314;-52